Main page
METAR-TAF:

METAR-TAF

Airports :

Adolfo Suárez Madrid–Barajas Airport

Madrid, Spain

latitude: 40-27N, longitude: 003-33W, elevation: 609 m

Current weather observation

The report was made 29 minutes ago, at 00:00 UTC
Wind 1 kt from the North/Northwest
Temperature 13°C
Humidity 77%
Pressure 1030 hPa
Visibility 10 km or more
no clouds below 1500 m and no cumulonimbus

METAR: LEMD 130000Z 34001KT CAVOK 13/09 Q1030 NOSIG

Time: 02:29 (00:29 UTC)

Forecast

The report was made 1 hour and 29 minutes ago, at 23:00 UTC
Forecast valid from 13 at 00 UTC to 14 at 06 UTC
Wind 5 kt from variable directions
Visibility 10 km or more
no clouds below 1500 m and no cumulonimbus

TAF: LEMD 122300Z 1300/1406 VRB05KT CAVOK TX28/1315Z TN07/1306Z

Weather observations and forecasts of more than 4000 airports (METAR and TAF reports).

The available stations are represented by yellow and red dots on the map.

Hover mouse over dot to see the name of the station.

Then click to see weather observations and forecasts.

To change the map : click on the green buttons with a black cross to zoom in, on the green button with a dash to zoom out, or on the green arrows for adjacent maps.


METAR-TAF: